Nearby METAR Reports

Actuele Vliegveldwaarnemingen NL (METAR).Zie KNMI uitleg METAR hier

EHAM - Amsterdam/Schiph, Netherlands
Distance from station: ONO 18km
Updated: 12/12/2019 07:55
Few Clouds
Few Clouds
 Wind van Z
Wind: Z 15 km/h
Temperatuur: 2°C
Wind Chill: -2°C
Dauwpunt: 1°C
Vochtigheid: 93%
Barometer: 1000 hPa
Clouds: Few Clouds
Visibility: 10 km
Cloud details: Few Clouds 701 m
2019/12/12 06:55 EHAM 120655Z 19008KT 9999 FEW023 02/01 Q1000 NOSIG
EHKD - DE KOOY/DE KOOY
Updated: 12/12/2019 07:55
Gedeeltelijk bewolkt
Gedeeltelijk bewolkt
 Wind van WZW
Wind: WZW 17 km/h
Temperatuur: 5°C
Wind Chill: 2°C
Dauwpunt: 2°C
Vochtigheid: 81%
Barometer: 999 hPa
Clouds: Gedeeltelijk bewolkt
Visibility: 10 km
Cloud details: Gedeeltelijk bewolkt 701 m
2019/12/12 06:55 EHKD 120655Z AUTO 24009KT 200V260 9999 SCT023 05/02 Q0999 WHT 24013KT 9999 FEW015 SCT025
 
EHLW - LEEUWARDEN/LEEUWARDEN
Updated: 12/12/2019 07:55
Meestal bewolkt
Meestal bewolkt
 Wind van ZZW
Wind: ZZW 15 km/h
Temperatuur: 4°C
Wind Chill: 1°C
Dauwpunt: 3°C
Vochtigheid: 93%
Barometer: 998 hPa
Clouds: Meestal bewolkt
Visibility: 10 km
Cloud details: Few Clouds 640 m
Gedeeltelijk bewolkt 762 m
Meestal bewolkt 1341 m
2019/12/12 06:55 EHLW 120655Z AUTO 21008KT 9999 FEW021 SCT025 BKN044 04/03 Q0998 BLU
EHVK - VOLKEL/VOLKEL
Updated: 12/12/2019 07:55
Zwaar bewolkt
Zwaar bewolkt
 Wind van ZW
Wind: ZW 17 km/h
Temperatuur: 4°C
Wind Chill: 0°C
Dauwpunt: 3°C
Vochtigheid: 93%
Barometer: 1001 hPa
Clouds: Zwaar bewolkt
Visibility: 10 km
Cloud details: Few Clouds 213 m
Meestal bewolkt 1128 m
Zwaar bewolkt 1250 m
2019/12/12 06:55 EHVK 120655Z AUTO 23009KT 9999 FEW007 BKN037 OVC041 04/03 Q1001 BLU 23009KT 9999 SCT035 TEMPO FEW007 SCT010
 
EHFS - VLISSINGEN
Updated: 12/12/2019 07:25
Helder
Helder
 Wind van ZW
Wind: ZW 26 km/h
Temperatuur: 4°C
Wind Chill: -1°C
Dauwpunt: 3°C
Vochtigheid: 93%
Barometer: 1001 hPa
Clouds: Helder
Visibility: 10 km
2019/12/12 06:25 EHFS 120625Z AUTO 22014KT 9999 NCD 04/03 Q1001
EHEH - EINDHOVEN/EINDHOVEN
Updated: 12/12/2019 07:55
Meestal bewolkt
Meestal bewolkt
 Wind van ZZW
Wind: ZZW 17 km/h
Temperatuur: 3°C
Wind Chill: -1°C
Dauwpunt: 2°C
Vochtigheid: 93%
Barometer: 1002 hPa
Clouds: Meestal bewolkt
Visibility: 10 km
Cloud details: Few Clouds 183 m
Gedeeltelijk bewolkt 213 m
Meestal bewolkt 701 m
2019/12/12 06:55 EHEH 120655Z AUTO 21009KT 9999 FEW006 SCT007 BKN023 03/02 Q1002 GRN 21010KT 9999 BKN035 TEMPO SCT008 BKN015
 
EHGR - GILZE-RIJEN/GILZE-RIJEN
Updated: 12/12/2019 07:55
Helder
Helder
 Wind van ZZW
Wind: ZZW 13 km/h
Temperatuur: 2°C
Wind Chill: -1°C
Dauwpunt: 2°C
Vochtigheid: 100%
Barometer: 1001 hPa
Clouds: Helder
Visibility: 10 km
2019/12/12 06:55 EHGR 120655Z AUTO 20007KT 160V230 9999 NCD 02/02 Q1001 BLU
EHDL - ARNHEM/DEELEN
Updated: 12/12/2019 07:55
Mist, Zwaar bewolkt
Mist, Zwaar bewolkt
 Wind van ZW
Wind: ZW 17 km/h
Temperatuur: 4°C
Wind Chill: 0°C
Dauwpunt: 4°C
Vochtigheid: 100%
Barometer: 1001 hPa
Overzicht: Mist
Clouds: Zwaar bewolkt
Visibility: 8 km
Cloud details: Gedeeltelijk bewolkt 183 m
Meestal bewolkt 213 m
Zwaar bewolkt 274 m
2019/12/12 06:55 EHDL 120655Z AUTO 22009KT 170V260 8000 BR SCT006 BKN007 OVC009 04/04 Q1001 YLO
 
EHBK - MAASTRICHT/MAASTRICHT-AACHEN
Updated: 12/12/2019 07:55
Zwaar bewolkt
Zwaar bewolkt
 Wind van ZW
Wind: ZW 20 km/h
Temperatuur: 4°C
Wind Chill: -1°C
Dauwpunt: 3°C
Vochtigheid: 93%
Barometer: 1003 hPa
Clouds: Zwaar bewolkt
Visibility: 10 km
Cloud details: Zwaar bewolkt 640 m
2019/12/12 06:55 EHBK 120655Z AUTO 23011KT 9999 OVC021 04/03 Q1003 TEMPO BKN008